Latest Weather Observations for Montague Island

IDN60801

Issued at 1:32 pm EDT Thursday 11 February 2016 (issued every 30 minutes, with the page automatically refreshed every 10 minutes)

About weather observations | Map of weather stations | Latest weather observations for NSW | Other Formats
Station Details ID: 069017 Name: MONTAGUE ISLAND LIGHTHOUSE Lat: -36.25 Lon: 150.23 Height: 52.0 m
Data from the previous 72 hours. | See also: Recent months at Montague Island
Date/Time
EDT
Temp
°C
App
Temp
°C
Dew
Point
Rel
Hum
%
Delta-T
°C
Wind Press
QNH
hPa
Press
MSL
hPa
Rain
since 9 am
mm
Dir
 
Spd
km/h
Gust
km/h
Spd
kts
Gust
kts
11/01:30pm 23.4 21.4 20.0 81 2.2 SSE 30 35 16 19 1015.9 1015.7 0.2
11/01:00pm 23.7 22.2 20.2 81 2.3 SSE 28 32 15 17 1015.9 1015.7 0.2
11/12:30pm 25.4 26.6 20.0 72 3.5 S 13 20 7 11 1015.9 1015.7 0.2
11/12:00pm 24.5 24.4 20.0 76 2.9 SW 20 26 11 14 1016.1 1015.9 0.2
11/11:30am 23.3 21.5 19.5 79 2.4 WSW 28 39 15 21 1016.3 1016.1 0.2
11/11:00am 23.5 22.1 20.4 83 2.0 SW 28 35 15 19 1016.0 1015.8 0.0
11/10:30am 23.4 23.1 21.1 87 1.5 SSW 24 32 13 17 1015.9 1015.7 0.0
11/10:00am 22.0 21.6 20.1 89 1.2 SW 22 28 12 15 1016.0 1015.8 0.0
11/09:30am 22.9 24.2 20.2 85 1.7 SW 13 17 7 9 1016.0 1015.8 0.0
11/09:00am 23.0 23.1 20.3 85 1.7 SW 20 26 11 14 1015.7 1015.5 -
11/08:30am 22.5 22.9 20.6 89 1.2 SW 19 22 10 12 1015.6 1015.4 -
11/08:00am 22.0 22.6 20.3 90 1.1 SW 17 20 9 11 1015.4 1015.2 -
11/07:30am 21.6 21.6 20.1 91 1.0 SSW 20 24 11 13 1015.1 1014.9 -
11/07:00am 21.2 21.0 19.8 92 0.9 SW 20 26 11 14 1014.8 1014.6 -
11/06:30am 21.3 21.2 19.9 92 0.9 SW 20 24 11 13 1014.5 1014.3 -
11/06:00am 21.4 21.5 20.0 92 0.9 SW 19 24 10 13 1014.4 1014.2 -
11/05:30am 21.4 21.3 20.0 92 0.9 SW 20 24 11 13 1013.9 1013.7 -
11/05:00am 21.3 21.2 19.9 92 0.9 SSW 20 26 11 14 1013.6 1013.4 -
11/04:30am 21.3 21.7 19.8 91 1.0 SSW 17 22 9 12 1013.5 1013.3 -
11/04:00am 21.3 21.7 19.8 91 1.0 SSW 17 20 9 11 1013.5 1013.3 -
11/03:30am 21.4 21.5 19.9 91 1.0 SSW 19 22 10 12 1013.7 1013.5 -
11/03:00am 21.3 21.2 19.6 90 1.1 SW 19 22 10 12 1013.8 1013.6 0.0
11/02:30am 21.4 21.5 19.9 91 1.0 SW 19 22 10 12 1013.9 1013.7 -
11/02:00am 21.4 22.2 19.9 91 1.0 SW 15 19 8 10 1014.2 1014.0 -
11/01:30am 21.5 21.6 20.0 91 1.0 SW 19 24 10 13 1014.5 1014.3 -
11/01:00am 21.6 22.1 20.1 91 1.0 SW 17 22 9 12 1014.7 1014.5 -
11/12:30am 21.7 22.2 20.0 90 1.1 SW 17 20 9 11 1014.8 1014.6 -
11/12:00am 22.0 22.3 20.3 90 1.1 SW 19 24 10 13 1014.9 1014.7 -
 
Date/Time
EDT
Temp
°C
App
Temp
°C
Dew
Point
Rel
Hum
%
Delta-T
°C
Wind Press
QNH
hPa
Press
MSL
hPa
Rain
since 9 am
mm
Dir
 
Spd
km/h
Gust
km/h
Spd
kts
Gust
kts
10/11:30pm 22.2 22.8 20.3 89 1.2 SW 17 26 9 14 1014.9 1014.7 -
10/11:00pm 22.8 26.3 20.3 86 1.6 SW 2 7 1 4 1015.1 1014.9 -
10/10:30pm 22.9 26.8 20.4 86 1.6 CALM 0 0 0 0 1015.4 1015.2 -
10/10:00pm 22.9 26.8 20.4 86 1.6 CALM 0 0 0 0 1015.2 1015.0 -
10/09:30pm 23.0 27.0 20.5 86 1.6 CALM 0 6 0 3 1014.9 1014.7 -
10/09:00pm 23.0 27.1 20.7 87 1.5 CALM 0 6 0 3 1014.6 1014.4 0.0
10/08:30pm 23.1 27.1 20.6 86 1.6 CALM 0 6 0 3 1014.3 1014.1 -
10/08:00pm 23.1 25.7 20.4 85 1.8 SE 7 9 4 5 1013.8 1013.6 -
10/07:30pm 23.8 26.0 20.3 81 2.3 S 9 11 5 6 1013.6 1013.4 -
10/07:00pm 23.8 26.7 19.9 79 2.5 SSE 4 7 2 4 1013.4 1013.2 -
10/06:30pm 24.0 26.7 20.3 80 2.4 SE 6 7 3 4 1012.6 1012.5 -
10/06:00pm 24.0 26.5 20.3 80 2.4 SSE 7 9 4 5 1012.3 1012.2 -
10/05:30pm 24.2 26.6 20.1 78 2.7 SSE 7 9 4 5 1012.1 1012.0 -
10/05:00pm 24.7 27.0 19.8 74 3.2 ESE 7 9 4 5 1012.0 1011.9 -
10/04:30pm 25.0 27.2 20.3 75 3.1 NE 9 11 5 6 1011.8 1011.7 -
10/04:00pm 25.3 27.0 21.0 77 2.8 NE 13 17 7 9 1011.5 1011.4 -
10/03:30pm 25.2 26.3 20.5 75 3.1 NE 15 20 8 11 1011.4 1011.3 -
10/03:00pm 25.1 25.5 20.6 76 3.0 NNE 19 24 10 13 1011.5 1011.4 -
10/02:30pm 24.9 25.2 20.4 76 2.9 NNE 19 24 10 13 1011.8 1011.7 -
10/02:00pm 24.5 23.9 19.8 75 3.0 NNE 22 26 12 14 1011.9 1011.8 -
10/01:30pm 24.3 23.3 19.6 75 3.0 NNE 24 32 13 17 1012.0 1011.9 -
10/01:00pm 24.0 21.2 19.1 74 3.1 NNE 32 39 17 21 1012.1 1012.0 -
10/12:30pm 23.9 19.9 18.5 72 3.4 NNE 37 43 20 23 1012.4 1012.3 -
10/12:00pm 23.7 20.1 18.6 73 3.2 NNE 35 41 19 22 1012.8 1012.7 -
10/11:30am 23.6 20.9 16.6 65 4.3 NNE 26 32 14 17 1013.3 1013.1 -
10/09:30am 21.2 20.4 18.0 82 2.0 NNW 19 22 10 12 1014.3 1014.1 0.0
10/09:00am 20.9 19.8 17.7 82 2.0 NNW 20 24 11 13 1014.3 1014.1 0.0
10/08:30am 20.8 19.9 17.8 83 1.9 N 19 24 10 13 1014.2 1014.0 0.0
10/08:00am 20.0 18.9 17.4 85 1.6 NNW 19 22 10 12 1014.4 1014.2 0.0
10/07:30am 19.5 19.1 17.1 86 1.5 NW 15 19 8 10 1014.5 1014.3 0.0
10/07:00am 20.4 18.5 16.8 80 2.2 N 22 28 12 15 1014.3 1014.1 0.0
10/06:30am 20.4 18.0 17.4 83 1.8 N 26 33 14 18 1014.3 1014.1 0.0
10/06:00am 20.2 17.5 17.6 85 1.6 N 28 35 15 19 1014.3 1014.1 0.0
10/05:30am 20.3 18.3 18.2 88 1.3 N 26 32 14 17 1014.4 1014.2 0.0
10/05:00am 20.3 18.1 17.9 86 1.5 N 26 33 14 18 1014.3 1014.1 0.0
10/04:30am 20.3 17.4 17.1 82 2.0 N 28 33 15 18 1014.4 1014.2 0.0
10/04:00am 20.4 17.8 16.8 80 2.2 N 26 32 14 17 1014.5 1014.3 0.0
10/03:30am 20.3 17.5 17.3 83 1.8 N 28 32 15 17 1014.8 1014.6 0.0
10/03:00am 20.4 17.9 17.2 82 2.0 N 26 30 14 16 1015.2 1015.0 0.0
10/02:30am 20.4 18.8 17.4 83 1.8 N 22 30 12 16 1015.6 1015.4 0.0
10/02:00am 20.6 19.4 17.6 83 1.8 NNW 20 28 11 15 1016.0 1015.8 0.0
10/01:30am 20.6 18.6 17.4 82 2.0 N 24 28 13 15 1016.4 1016.2 0.0
10/01:00am 20.8 18.7 17.2 80 2.2 NNW 24 28 13 15 1017.0 1016.8 0.0
10/12:30am 20.7 19.6 17.7 83 1.9 NNW 20 26 11 14 1017.4 1017.2 0.0
10/12:00am 21.0 20.2 18.0 83 1.9 NNW 19 28 10 15 1017.8 1017.6 0.0
 
Date/Time
EDT
Temp
°C
App
Temp
°C
Dew
Point
Rel
Hum
%
Delta-T
°C
Wind Press
QNH
hPa
Press
MSL
hPa
Rain
since 9 am
mm
Dir
 
Spd
km/h
Gust
km/h
Spd
kts
Gust
kts
09/11:30pm 21.3 20.0 17.3 78 2.5 N 20 26 11 14 1018.1 1017.9 0.0
09/11:00pm 21.3 19.9 16.9 76 2.7 N 20 26 11 14 1018.5 1018.3 0.0
09/10:30pm 21.3 19.8 16.7 75 2.8 NNE 20 26 11 14 1018.7 1018.5 0.0
09/10:00pm 21.4 20.5 16.8 75 2.8 N 17 22 9 12 1018.9 1018.7 0.0
09/09:30pm 21.4 20.5 16.8 75 2.8 NNE 17 20 9 11 1018.9 1018.7 0.0
09/09:00pm 21.3 20.7 16.7 75 2.8 NNE 15 19 8 10 1018.9 1018.7 0.0
09/08:30pm 21.3 20.6 16.5 74 2.9 NNE 15 17 8 9 1018.8 1018.6 0.0
09/08:00pm 21.3 21.4 16.5 74 2.9 NNE 11 15 6 8 1018.9 1018.7 0.0
09/07:30pm 21.6 21.4 16.6 73 3.0 NNE 13 17 7 9 1018.9 1018.7 0.0
09/07:00pm 21.8 22.0 16.7 73 3.1 NE 11 15 6 8 1018.6 1018.4 0.0
09/06:30pm 21.8 21.8 16.3 71 3.3 ENE 11 15 6 8 1018.6 1018.4 0.0
09/06:00pm 22.1 21.8 16.4 70 3.5 ENE 13 17 7 9 1018.7 1018.5 0.0
09/05:30pm 22.7 22.5 16.7 69 3.7 ENE 13 17 7 9 1018.7 1018.5 0.0
09/05:00pm 22.9 22.3 16.7 68 3.8 ENE 15 19 8 10 1018.9 1018.7 0.0
09/04:30pm 22.7 22.0 16.3 67 3.9 E 15 19 8 10 1019.2 1019.0 0.0
09/04:00pm 23.0 22.1 16.8 68 3.8 E 17 20 9 11 1019.4 1019.2 0.0
09/03:30pm 22.6 21.3 15.9 66 4.0 E 17 20 9 11 1019.7 1019.5 0.0
09/03:00pm 22.6 21.3 15.7 65 4.1 ESE 17 20 9 11 1019.9 1019.7 0.0
09/02:30pm 22.9 21.1 15.5 63 4.4 ESE 19 22 10 12 1020.3 1020.1 0.0
09/02:00pm 23.4 22.1 15.7 62 4.6 SE 17 20 9 11 1020.6 1020.4 0.0
09/01:30pm 23.9 22.7 16.2 62 4.7 SE 17 20 9 11 1020.8 1020.6 0.0
09/01:00pm 22.8 21.4 14.6 60 4.8 SE 15 20 8 11 1021.1 1020.9 0.0
09/12:30pm 22.8 21.7 14.4 59 5.0 SSE 13 17 7 9 1021.4 1021.2 0.0
09/12:00pm 22.6 21.5 14.4 60 4.8 SSE 13 17 7 9 1021.6 1021.4 0.0
09/11:30am 22.3 21.0 13.6 58 5.0 SSE 13 20 7 11 1021.9 1021.7 0.0
09/11:00am 23.8 22.2 15.0 57 5.2 S 17 22 9 12 1022.0 1021.8 0.0
09/10:30am 23.0 20.9 15.3 62 4.6 SSW 20 26 11 14 1022.0 1021.8 0.0
09/10:00am 22.1 19.5 15.0 64 4.2 SSW 22 28 12 15 1022.0 1021.8 0.0
09/09:30am 21.5 19.4 15.1 67 3.8 SSW 20 30 11 16 1022.0 1021.8 0.0
09/09:00am 20.7 17.8 15.0 70 3.4 SSW 24 33 13 18 1021.8 1021.6 0.0
09/08:30am 20.4 17.4 15.8 75 2.7 SW 26 32 14 17 1021.7 1021.5 0.0
09/08:00am 19.9 16.6 16.0 78 2.3 SW 28 35 15 19 1021.5 1021.3 0.0
09/07:30am 19.6 15.7 16.4 82 1.9 SSW 32 39 17 21 1021.1 1020.9 0.0
09/07:00am 19.3 14.9 16.7 85 1.6 SSW 35 41 19 22 1020.7 1020.5 0.0
09/06:30am 19.4 15.4 16.6 84 1.7 SSW 33 39 18 21 1020.5 1020.3 0.0
09/06:00am 19.6 15.5 16.4 82 1.9 SSW 33 39 18 21 1020.2 1020.0 0.0
09/05:30am 19.8 15.6 16.3 80 2.1 S 33 39 18 21 1020.0 1019.8 0.0
09/05:00am 20.1 15.8 15.9 77 2.5 S 33 39 18 21 1019.8 1019.6 0.0
09/04:30am 20.3 16.1 16.3 78 2.4 S 33 43 18 23 1019.7 1019.5 0.0
09/04:00am 20.6 16.3 17.0 80 2.2 S 35 41 19 22 1019.7 1019.5 0.0
09/03:30am 20.4 17.0 17.6 84 1.7 S 32 37 17 20 1019.7 1019.5 0.0
09/03:00am 20.8 18.1 18.4 86 1.5 S 30 35 16 19 1019.7 1019.5 0.0
09/02:30am 21.0 21.4 19.1 89 1.2 SW 15 20 8 11 1019.8 1019.6 0.0
09/02:00am 21.2 21.9 18.9 87 1.4 SW 13 17 7 9 1019.9 1019.7 0.0
09/01:30am 21.4 21.5 19.1 87 1.5 S 17 20 9 11 1020.1 1019.9 0.0
09/01:00am 21.6 21.6 19.0 85 1.6 SSE 17 20 9 11 1020.3 1020.1 0.0
09/12:30am 21.9 21.6 19.1 84 1.8 SSE 19 22 10 12 1020.4 1020.2 0.0
09/12:00am 21.9 21.3 18.9 83 1.9 SE 20 22 11 12 1020.5 1020.3 0.0
 
Date/Time
EDT
Temp
°C
App
Temp
°C
Dew
Point
Rel
Hum
%
Delta-T
°C
Wind Press
QNH
hPa
Press
MSL
hPa
Rain
since 9 am
mm
Dir
 
Spd
km/h
Gust
km/h
Spd
kts
Gust
kts
08/11:30pm 21.9 21.5 18.9 83 1.9 SE 19 22 10 12 1020.5 1020.3 0.0
08/11:00pm 22.1 21.7 18.9 82 2.0 SE 19 20 10 11 1020.7 1020.5 0.0
08/10:30pm 22.1 21.0 18.7 81 2.1 SE 22 26 12 14 1020.8 1020.6 0.0
08/10:00pm 22.0 20.1 18.6 81 2.1 SE 26 30 14 16 1020.7 1020.5 0.0
08/09:30pm 22.1 19.8 18.5 80 2.3 SSE 28 32 15 17 1020.4 1020.2 0.0
08/09:00pm 22.2 19.2 18.6 80 2.3 SSE 32 37 17 20 1020.0 1019.8 0.0
08/08:30pm 22.4 20.4 19.2 82 2.0 SSE 28 33 15 18 1019.7 1019.5 0.0
08/08:00pm 22.7 21.3 19.7 83 1.9 S 26 32 14 17 1019.5 1019.3 0.0
08/07:30pm 22.7 21.6 19.5 82 2.0 SSE 24 28 13 15 1019.3 1019.1 0.0
08/07:00pm 22.7 21.7 18.9 79 2.4 SSE 22 26 12 14 1019.2 1019.0 0.0
08/06:30pm 23.3 22.7 18.8 76 2.9 S 20 26 11 14 1018.8 1018.6 0.0
08/06:00pm 23.5 22.6 18.2 72 3.3 SSE 20 24 11 13 1018.8 1018.6 0.0
08/05:30pm 23.7 23.5 18.4 72 3.3 SSE 17 22 9 12 1018.6 1018.4 0.0
08/05:00pm 24.8 25.2 19.0 70 3.7 S 15 20 8 11 1018.7 1018.5 0.0
08/04:30pm 23.9 24.1 18.5 72 3.4 SSE 15 20 8 11 1018.6 1018.4 0.0
08/04:00pm 24.2 24.1 18.8 72 3.4 SSE 17 22 9 12 1018.6 1018.4 0.0
08/03:30pm 25.1 25.0 18.8 68 4.0 S 17 20 9 11 1018.6 1018.4 0.0
08/03:00pm 24.2 24.8 18.6 71 3.5 SSE 13 15 7 8 1018.7 1018.5 0.0
08/02:30pm 24.0 25.2 18.2 70 3.7 SSE 9 13 5 7 1018.8 1018.6 0.0
08/02:00pm 24.5 25.4 18.4 69 3.9 ESE 11 13 6 7 1018.8 1018.6 0.0

Other Formats:

Comma delimited format used in spreadsheet applications
http://www.bom.gov.au/fwo/IDN60801/IDN60801.94939.axf

JavaScript Object Notation format (JSON) in row-major order
http://www.bom.gov.au/fwo/IDN60801/IDN60801.94939.json